createdAt,value
2019-02-15T00:03:52.955Z,58.75
2019-02-15T00:07:57.260Z,58.73
2019-02-15T00:12:01.513Z,58.68
2019-02-15T00:16:05.746Z,58.63
2019-02-15T00:20:14.951Z,58.58
2019-02-15T00:24:19.194Z,58.63
2019-02-15T00:28:23.413Z,58.63
2019-02-15T00:32:27.728Z,58.80
2019-02-15T00:36:31.901Z,58.94
2019-02-15T00:40:36.144Z,58.79
2019-02-15T00:44:40.335Z,59.02
2019-02-15T00:48:44.560Z,59.03
2019-02-15T00:52:54.768Z,59.04
2019-02-15T00:57:21.090Z,59.06
2019-02-15T01:01:35.722Z,59.17
2019-02-15T01:05:59.102Z,59.13
2019-02-15T01:10:25.360Z,59.31
2019-02-15T01:14:29.574Z,59.15
2019-02-15T01:18:34.227Z,59.28
2019-02-15T01:22:38.445Z,59.48
2019-02-15T01:26:45.130Z,59.39
2019-02-15T01:31:08.318Z,59.28
2019-02-15T01:35:18.351Z,59.37
2019-02-15T01:39:28.967Z,59.40
2019-02-15T01:43:46.285Z,59.36
2019-02-15T01:47:51.380Z,59.40
2019-02-15T01:51:55.694Z,59.44
2019-02-15T01:55:59.906Z,59.45
2019-02-15T02:00:04.459Z,59.52
2019-02-15T02:04:08.646Z,59.47
2019-02-15T02:08:19.234Z,59.46
2019-02-15T02:12:23.449Z,59.50
2019-02-15T02:21:31.287Z,59.59
2019-02-15T02:25:35.486Z,59.50
2019-02-15T02:29:39.706Z,59.57
2019-02-15T02:33:43.979Z,59.75
2019-02-15T02:37:48.218Z,59.81
2019-02-15T02:41:52.544Z,59.73
2019-02-15T02:45:56.845Z,59.78
2019-02-15T02:50:03.038Z,59.78
2019-02-15T02:54:07.380Z,59.74
2019-02-15T02:58:11.613Z,59.72
2019-02-15T03:02:15.872Z,59.79
2019-02-15T03:06:20.157Z,59.87
2019-02-15T03:10:24.385Z,59.81
2019-02-15T03:14:28.873Z,59.85
2019-02-15T03:18:33.065Z,60.05
2019-02-15T03:22:37.355Z,59.95
2019-02-15T03:26:41.547Z,59.99
2019-02-15T03:30:46.439Z,60.31
2019-02-15T03:34:50.646Z,60.23
2019-02-15T03:38:59.723Z,60.24
2019-02-15T03:43:03.974Z,60.28
2019-02-15T03:47:08.198Z,60.41
2019-02-15T03:51:12.467Z,60.44
2019-02-15T03:55:16.731Z,60.67
2019-02-15T03:59:20.965Z,60.65
2019-02-15T04:03:25.185Z,60.73
2019-02-15T04:07:29.355Z,60.88
2019-02-15T04:11:33.587Z,60.64
2019-02-15T04:15:37.808Z,60.63
2019-02-15T04:19:42.186Z,60.65
2019-02-15T04:23:46.772Z,60.80
2019-02-15T04:27:51.001Z,60.71
2019-02-15T04:31:55.626Z,60.73
2019-02-15T04:35:59.843Z,60.83
2019-02-15T04:40:04.182Z,60.83
2019-02-15T04:44:08.431Z,60.80
2019-02-15T04:48:12.746Z,60.85
2019-02-15T04:52:16.897Z,60.91
2019-02-15T04:56:21.141Z,60.94
2019-02-15T05:00:25.335Z,60.89
2019-02-15T05:04:29.576Z,60.96
2019-02-15T05:08:34.151Z,60.95
2019-02-15T05:12:38.520Z,61.06
2019-02-15T05:16:43.008Z,61.29
2019-02-15T05:20:47.592Z,61.40
2019-02-15T05:24:51.845Z,61.28
2019-02-15T05:28:56.075Z,61.38
2019-02-15T05:33:00.387Z,61.41
2019-02-15T05:37:04.599Z,61.54
2019-02-15T05:41:08.838Z,61.41
2019-02-15T05:45:13.043Z,61.52
2019-02-15T05:49:17.633Z,61.57
2019-02-15T05:53:21.811Z,61.67
2019-02-15T05:57:26.020Z,61.64
2019-02-15T06:01:30.844Z,61.96
2019-02-15T06:05:35.163Z,62.14
2019-02-15T06:09:39.456Z,61.70
2019-02-15T06:13:43.757Z,62.19
2019-02-15T06:17:48.302Z,62.00
2019-02-15T06:21:52.543Z,62.12
2019-02-15T06:25:57.187Z,62.32
2019-02-15T06:30:03.291Z,62.08
2019-02-15T06:34:07.577Z,62.39
2019-02-15T06:38:12.215Z,62.47
2019-02-15T06:42:16.527Z,62.25
2019-02-15T06:46:20.822Z,62.35
2019-02-15T06:50:25.403Z,62.35
2019-02-15T06:54:29.950Z,62.55
2019-02-15T06:58:35.737Z,64.25
2019-02-15T07:03:02.043Z,62.58
2019-02-15T07:07:06.235Z,62.40
2019-02-15T07:11:10.908Z,62.16
2019-02-15T07:15:15.163Z,62.16
2019-02-15T07:19:19.422Z,62.19
2019-02-15T07:23:23.648Z,62.16
2019-02-15T07:27:28.160Z,62.13
2019-02-15T07:31:32.708Z,62.05
2019-02-15T07:35:36.986Z,61.89
2019-02-15T07:39:41.249Z,61.92
2019-02-15T07:43:45.475Z,61.69
2019-02-15T07:47:49.690Z,61.65
2019-02-15T07:51:53.939Z,61.60
2019-02-15T07:55:58.306Z,61.58
2019-02-15T08:00:02.553Z,61.45
2019-02-15T08:04:06.933Z,61.41
2019-02-15T08:08:11.175Z,61.23
2019-02-15T08:12:15.482Z,61.20
2019-02-15T08:16:19.692Z,60.96
2019-02-15T08:20:23.911Z,60.28
2019-02-15T08:24:28.162Z,60.61
2019-02-15T08:28:32.722Z,60.47
2019-02-15T08:32:36.901Z,60.71
2019-02-15T08:36:41.290Z,60.65
2019-02-15T08:44:47.860Z,60.33
2019-02-15T08:48:52.111Z,59.95
2019-02-15T08:52:56.338Z,60.24
2019-02-15T08:57:00.964Z,59.96
2019-02-15T09:01:05.203Z,58.89
2019-02-15T09:05:11.301Z,59.19
2019-02-15T09:09:15.554Z,58.82
2019-02-15T09:13:19.732Z,58.57
2019-02-15T09:17:23.960Z,58.84
2019-02-15T09:21:28.329Z,58.32
2019-02-15T09:25:32.612Z,58.24
2019-02-15T09:29:36.809Z,57.88
2019-02-15T09:33:41.131Z,57.65
2019-02-15T09:37:45.406Z,57.80
2019-02-15T09:41:49.613Z,57.92
2019-02-15T09:45:53.832Z,57.73
2019-02-15T09:49:58.055Z,58.43
2019-02-15T09:54:02.270Z,58.45
2019-02-15T09:58:06.516Z,58.98
2019-02-15T10:02:10.851Z,59.16
2019-02-15T10:06:15.089Z,59.11
2019-02-15T10:10:19.373Z,59.08
2019-02-15T10:14:23.648Z,59.46
2019-02-15T10:18:27.880Z,58.46
2019-02-15T10:22:32.315Z,58.71
2019-02-15T10:26:36.532Z,59.10
2019-02-15T10:30:40.815Z,59.14
2019-02-15T10:34:44.999Z,59.23
2019-02-15T10:38:49.405Z,59.06
2019-02-15T10:42:53.672Z,58.85
2019-02-15T10:46:57.965Z,58.51
2019-02-15T10:51:02.523Z,58.18
2019-02-15T10:55:07.848Z,58.83
2019-02-15T10:59:12.066Z,58.64
2019-02-15T11:03:16.272Z,58.67
2019-02-15T11:07:20.509Z,58.62
2019-02-15T11:11:24.738Z,58.63
2019-02-15T11:15:28.953Z,58.81
2019-02-15T11:19:33.532Z,58.75
2019-02-15T11:23:37.853Z,58.27
2019-02-15T11:27:42.058Z,58.21
2019-02-15T11:31:46.350Z,58.91
2019-02-15T11:35:50.685Z,58.51
2019-02-15T11:39:54.930Z,58.09
2019-02-15T11:43:59.175Z,58.30
2019-02-15T11:48:03.368Z,57.89
2019-02-15T11:52:07.684Z,57.57
2019-02-15T11:56:11.923Z,57.63
2019-02-15T12:00:21.083Z,57.80
2019-02-15T12:04:25.118Z,57.41
2019-02-15T12:08:29.384Z,56.73
2019-02-15T12:12:34.010Z,56.75
2019-02-15T12:16:38.711Z,56.76
2019-02-15T12:20:42.958Z,56.72
2019-02-15T12:24:47.175Z,56.39
2019-02-15T12:28:51.711Z,56.12
2019-02-15T12:32:56.585Z,56.59
2019-02-15T12:37:00.837Z,56.16
2019-02-15T12:45:09.404Z,56.92
2019-02-15T12:49:13.678Z,56.65
2019-02-15T12:53:17.932Z,56.38
2019-02-15T12:57:22.162Z,56.16
2019-02-15T13:01:26.426Z,56.72
2019-02-15T13:05:30.660Z,56.63
2019-02-15T13:09:34.862Z,55.98
2019-02-15T13:13:39.089Z,55.95
2019-02-15T13:17:43.504Z,55.93
2019-02-15T13:21:48.072Z,55.78
2019-02-15T13:25:52.626Z,55.78
2019-02-15T13:29:57.192Z,55.22
2019-02-15T13:34:01.773Z,55.29
2019-02-15T13:38:06.228Z,54.76
2019-02-15T13:42:10.466Z,55.67
2019-02-15T13:46:14.955Z,55.56
2019-02-15T13:50:19.411Z,54.37
2019-02-15T13:54:23.771Z,54.11
2019-02-15T13:58:28.179Z,53.15
2019-02-15T14:02:32.516Z,53.85
2019-02-15T14:06:36.943Z,53.40
2019-02-15T14:10:41.190Z,54.62
2019-02-15T14:14:45.428Z,53.44
2019-02-15T14:18:49.625Z,53.83
2019-02-15T14:22:53.899Z,53.44
2019-02-15T14:26:58.131Z,52.78
2019-02-15T14:31:02.329Z,53.63
2019-02-15T14:35:07.163Z,52.46
2019-02-15T14:39:12.528Z,51.93
2019-02-15T14:43:17.096Z,50.94
2019-02-15T14:47:21.343Z,51.35
2019-02-15T14:51:25.632Z,52.65
2019-02-15T14:55:29.820Z,52.62
2019-02-15T14:59:34.075Z,51.82
2019-02-15T15:03:38.274Z,52.80
2019-02-15T15:07:42.586Z,52.62
2019-02-15T15:11:47.069Z,51.94
2019-02-15T15:15:51.377Z,52.44
2019-02-15T15:19:55.613Z,51.79
2019-02-15T15:23:59.870Z,52.07
2019-02-15T15:28:04.157Z,52.38
2019-02-15T15:32:08.769Z,52.57
2019-02-15T15:36:13.277Z,52.46
2019-02-15T15:40:17.570Z,52.27
2019-02-15T15:44:21.846Z,52.77
2019-02-15T15:48:26.285Z,53.15
2019-02-15T15:52:30.533Z,53.56
2019-02-15T15:56:34.762Z,53.63
2019-02-15T16:00:39.515Z,53.63
2019-02-15T16:04:56.170Z,53.79
2019-02-15T16:09:00.430Z,53.79
2019-02-15T16:13:04.660Z,53.83
2019-02-15T16:17:09.002Z,53.84
2019-02-15T16:21:13.249Z,53.94
2019-02-15T16:25:17.478Z,54.06
2019-02-15T16:29:21.686Z,54.09
2019-02-15T16:33:26.125Z,54.09
2019-02-15T16:37:30.320Z,54.12
2019-02-15T16:41:34.565Z,54.07
2019-02-15T16:45:38.788Z,54.03
2019-02-15T16:49:43.409Z,54.25
2019-02-15T16:53:48.132Z,54.79
2019-02-15T16:57:52.376Z,55.14
2019-02-15T17:01:56.634Z,55.19
2019-02-15T17:06:00.995Z,55.31
2019-02-15T17:10:05.591Z,55.50
2019-02-15T17:14:09.884Z,55.61
2019-02-15T17:18:14.461Z,55.83
2019-02-15T17:22:18.693Z,56.13
2019-02-15T17:26:22.939Z,56.22
2019-02-15T17:30:27.626Z,56.25
2019-02-15T17:38:41.971Z,56.06
2019-02-15T17:42:46.250Z,56.02
2019-02-15T17:46:50.442Z,56.12
2019-02-15T17:50:54.676Z,56.24
2019-02-15T17:54:58.896Z,56.40
2019-02-15T17:59:03.131Z,56.49
2019-02-15T18:03:07.659Z,56.49
2019-02-15T18:07:12.024Z,56.62
2019-02-15T18:11:16.216Z,56.71
2019-02-15T18:15:20.466Z,56.89
2019-02-15T18:19:24.660Z,57.13
2019-02-15T18:23:28.885Z,57.38
2019-02-15T18:27:33.143Z,57.45
2019-02-15T18:31:37.318Z,57.42
2019-02-15T18:35:41.554Z,57.27
2019-02-15T18:39:45.921Z,57.56
2019-02-15T18:43:50.107Z,57.79
2019-02-15T18:47:54.471Z,57.88
2019-02-15T18:51:58.808Z,57.88
2019-02-15T18:56:03.029Z,57.99
2019-02-15T19:00:09.426Z,58.17
2019-02-15T19:04:13.633Z,58.20
2019-02-15T19:08:17.965Z,58.16
2019-02-15T19:12:22.228Z,58.15
2019-02-15T19:16:26.530Z,58.25
2019-02-15T19:20:30.765Z,58.30
2019-02-15T19:24:35.140Z,58.38
2019-02-15T19:28:39.453Z,58.41
2019-02-15T19:32:43.802Z,58.44
2019-02-15T19:36:47.946Z,58.33
2019-02-15T19:40:52.195Z,58.22
2019-02-15T19:44:56.469Z,58.34
2019-02-15T19:49:00.655Z,58.41
2019-02-15T19:53:04.882Z,58.75
2019-02-15T19:57:09.122Z,58.89
2019-02-15T20:01:13.613Z,58.80
2019-02-15T20:05:17.858Z,59.21
2019-02-15T20:09:22.109Z,59.25
2019-02-15T20:13:26.322Z,59.36
2019-02-15T20:17:31.804Z,59.49
2019-02-15T20:21:36.060Z,59.51
2019-02-15T20:25:40.603Z,59.59
2019-02-15T20:29:49.576Z,59.65
2019-02-15T20:33:50.829Z,59.47
2019-02-15T20:37:55.133Z,59.30
2019-02-15T20:41:59.346Z,59.22
2019-02-15T20:46:03.672Z,59.57
2019-02-15T20:50:08.658Z,59.93
2019-02-15T20:54:13.308Z,60.17
2019-02-15T20:58:17.564Z,60.41
2019-02-15T21:02:21.809Z,60.53
2019-02-15T21:06:26.042Z,60.65
2019-02-15T21:10:30.352Z,60.70
2019-02-15T21:14:34.860Z,60.65
2019-02-15T21:18:39.093Z,60.60
2019-02-15T21:22:43.361Z,60.52
2019-02-15T21:26:47.587Z,60.39
2019-02-15T21:30:51.775Z,60.88
2019-02-15T21:34:56.358Z,61.18
2019-02-15T21:39:00.915Z,61.11
2019-02-15T21:43:05.263Z,61.13
2019-02-15T21:47:09.482Z,61.55
2019-02-15T21:51:13.726Z,61.74
2019-02-15T21:55:17.953Z,61.75
2019-02-15T21:59:22.169Z,61.88
2019-02-15T22:03:26.908Z,61.85
2019-02-15T22:07:31.087Z,61.86
2019-02-15T22:11:35.407Z,61.90
2019-02-15T22:15:39.959Z,61.95
2019-02-15T22:19:44.181Z,62.23
2019-02-15T22:23:48.425Z,62.45
2019-02-15T22:27:52.597Z,62.50
2019-02-15T22:31:56.785Z,62.54
2019-02-15T22:36:01.351Z,62.60
2019-02-15T22:40:28.566Z,62.83
2019-02-15T22:44:33.103Z,63.28
2019-02-15T22:48:37.322Z,63.79
2019-02-15T22:52:41.533Z,64.14
2019-02-15T22:56:45.755Z,64.32
2019-02-15T23:01:05.593Z,64.32
2019-02-15T23:05:09.842Z,64.32
2019-02-15T23:09:23.733Z,64.25
2019-02-15T23:13:27.979Z,64.29
2019-02-15T23:17:32.167Z,64.13
2019-02-15T23:21:36.796Z,63.82
2019-02-15T23:25:41.104Z,63.76
2019-02-15T23:29:45.624Z,63.83
2019-02-15T23:33:49.919Z,63.96
2019-02-15T23:37:54.092Z,63.99
2019-02-15T23:41:58.336Z,64.03
2019-02-15T23:46:02.530Z,64.01
2019-02-15T23:50:07.904Z,64.05
2019-02-15T23:54:12.141Z,64.06
2019-02-15T23:58:16.716Z,64.24
